Time,TemperatureF,DewpointF,PressureIn,WindDirection,WindDirectionDegrees,WindSpeedMPH,WindSpeedGustMPH,Humidity,HourlyPrecipIn,Conditions,Clouds,dailyrainin,SoftwareType,DateUTC
2013-05-09 00:03:00,57.0,53.0,29.97,ENE,76,0.0,0.0,87,0.00,,,0.00,,2013-05-09 04:03:00,
2013-05-09 00:13:00,57.0,53.0,29.97,ENE,76,0.0,0.0,87,0.00,,,0.00,,2013-05-09 04:13:00,
2013-05-09 00:23:00,56.0,52.0,29.97,ENE,76,0.0,0.0,88,0.00,,,0.00,,2013-05-09 04:23:00,
2013-05-09 00:33:00,56.0,53.0,29.97,ENE,76,0.0,1.0,90,0.00,,,0.00,,2013-05-09 04:33:00,
2013-05-09 00:43:00,56.0,53.0,29.97,ENE,76,0.0,1.0,90,0.00,,,0.00,,2013-05-09 04:43:00,
2013-05-09 00:53:00,55.0,52.0,29.98,ENE,77,1.0,1.0,91,0.00,,,0.00,,2013-05-09 04:53:00,
2013-05-09 01:02:00,55.0,52.0,29.97,East,83,0.0,2.0,91,0.00,,,0.00,,2013-05-09 05:02:00,
2013-05-09 01:12:00,55.0,52.0,29.97,East,83,0.0,2.0,91,0.00,,,0.00,,2013-05-09 05:12:00,
2013-05-09 01:22:00,55.0,53.0,29.97,East,84,0.0,1.0,92,0.00,,,0.00,,2013-05-09 05:22:00,
2013-05-09 01:32:00,55.0,53.0,29.96,East,83,0.0,0.0,92,0.00,,,0.00,,2013-05-09 05:32:00,
2013-05-09 01:42:00,55.0,53.0,29.96,East,83,0.0,0.0,92,0.00,,,0.00,,2013-05-09 05:42:00,
2013-05-09 01:52:00,54.0,52.0,29.97,East,84,0.0,0.0,92,0.00,,,0.00,,2013-05-09 05:52:00,
2013-05-09 02:02:00,54.0,52.0,29.96,East,84,0.0,0.0,93,0.00,,,0.00,,2013-05-09 06:02:00,
2013-05-09 02:12:00,54.0,52.0,29.96,East,84,0.0,0.0,93,0.00,,,0.00,,2013-05-09 06:12:00,
2013-05-09 02:21:00,54.0,52.0,29.96,East,83,0.0,1.0,93,0.00,,,0.00,,2013-05-09 06:21:00,
2013-05-09 02:32:00,53.0,51.0,29.96,East,84,0.0,1.0,94,0.00,,,0.00,,2013-05-09 06:32:00,
2013-05-09 02:42:00,53.0,51.0,29.96,East,84,0.0,1.0,94,0.00,,,0.00,,2013-05-09 06:42:00,
2013-05-09 02:52:00,53.0,51.0,29.95,East,84,0.0,0.0,94,0.00,,,0.00,,2013-05-09 06:52:00,
2013-05-09 03:01:00,53.0,52.0,29.95,East,84,0.0,0.0,95,0.00,,,0.00,,2013-05-09 07:01:00,
2013-05-09 03:12:00,53.0,52.0,29.95,East,84,0.0,0.0,95,0.00,,,0.00,,2013-05-09 07:12:00,
2013-05-09 03:21:00,52.0,51.0,29.95,East,84,0.0,0.0,95,0.00,,,0.00,,2013-05-09 07:21:00,
2013-05-09 03:32:00,52.0,51.0,29.94,East,84,0.0,0.0,95,0.00,,,0.00,,2013-05-09 07:32:00,
2013-05-09 03:42:00,52.0,51.0,29.94,East,84,0.0,0.0,95,0.00,,,0.00,,2013-05-09 07:42:00,
2013-05-09 03:52:00,52.0,51.0,29.94,East,84,0.0,0.0,96,0.00,,,0.00,,2013-05-09 07:52:00,
2013-05-09 04:02:00,52.0,51.0,29.94,East,83,0.0,0.0,96,0.00,,,0.00,,2013-05-09 08:02:00,
2013-05-09 04:11:00,52.0,51.0,29.94,East,83,0.0,0.0,96,0.00,,,0.00,,2013-05-09 08:11:00,
2013-05-09 04:21:00,51.0,50.0,29.94,East,84,0.0,0.0,96,0.00,,,0.00,,2013-05-09 08:21:00,
2013-05-09 04:32:00,51.0,50.0,29.94,East,83,0.0,0.0,97,0.00,,,0.00,,2013-05-09 08:32:00,
2013-05-09 04:42:00,51.0,50.0,29.94,East,83,0.0,0.0,97,0.00,,,0.00,,2013-05-09 08:42:00,
2013-05-09 04:52:00,51.0,50.0,29.94,East,84,0.0,0.0,97,0.00,,,0.00,,2013-05-09 08:52:00,
2013-05-09 05:02:00,51.0,50.0,29.94,East,84,0.0,0.0,97,0.00,,,0.00,,2013-05-09 09:02:00,
2013-05-09 05:11:00,51.0,50.0,29.94,East,84,0.0,0.0,97,0.00,,,0.00,,2013-05-09 09:11:00,
2013-05-09 05:21:00,51.0,50.0,29.94,East,84,0.0,0.0,98,0.00,,,0.00,,2013-05-09 09:21:00,
2013-05-09 05:32:00,50.0,49.0,29.94,East,83,0.0,0.0,97,0.00,,,0.00,,2013-05-09 09:32:00,
2013-05-09 05:43:00,50.0,49.0,29.94,East,83,0.0,0.0,97,0.00,,,0.00,,2013-05-09 09:43:00,
2013-05-09 05:53:00,50.0,49.0,29.94,East,84,0.0,0.0,97,0.00,,,0.00,,2013-05-09 09:53:00,
2013-05-09 06:02:00,50.0,49.0,29.94,East,83,0.0,0.0,98,0.00,,,0.00,,2013-05-09 10:02:00,
2013-05-09 06:12:00,50.0,49.0,29.95,East,83,0.0,0.0,98,0.00,,,0.00,,2013-05-09 10:12:00,
2013-05-09 06:23:00,50.0,49.0,29.95,East,83,0.0,0.0,98,0.00,,,0.00,,2013-05-09 10:23:00,
2013-05-09 06:33:00,51.0,51.0,29.95,East,84,0.0,0.0,99,0.00,,,0.00,,2013-05-09 10:33:00,
2013-05-09 06:42:00,51.0,51.0,29.95,East,84,0.0,0.0,99,0.00,,,0.00,,2013-05-09 10:42:00,
2013-05-09 06:53:00,52.0,52.0,29.96,East,84,0.0,0.0,99,0.00,,,0.00,,2013-05-09 10:53:00,
2013-05-09 07:02:00,52.0,52.0,29.96,East,84,0.0,0.0,99,0.00,,,0.00,,2013-05-09 11:02:00,
2013-05-09 07:12:00,52.0,52.0,29.96,East,84,0.0,0.0,99,0.00,,,0.00,,2013-05-09 11:12:00,
2013-05-09 07:22:00,53.0,53.0,29.97,WSW,245,0.0,2.0,99,0.00,,,0.00,,2013-05-09 11:22:00,
2013-05-09 07:32:00,53.0,53.0,29.97,WSW,245,0.0,1.0,99,0.00,,,0.00,,2013-05-09 11:32:00,
2013-05-09 07:42:00,53.0,53.0,29.97,WSW,245,0.0,1.0,99,0.00,,,0.00,,2013-05-09 11:42:00,
2013-05-09 07:52:00,54.0,53.0,29.97,WSW,245,0.0,0.0,98,0.00,,,0.00,,2013-05-09 11:52:00,
2013-05-09 08:01:00,54.0,53.0,29.97,WSW,245,0.0,0.0,98,0.00,,,0.00,,2013-05-09 12:01:00,
2013-05-09 08:11:00,54.0,53.0,29.97,WSW,245,0.0,0.0,98,0.00,,,0.00,,2013-05-09 12:11:00,
2013-05-09 08:22:00,54.0,53.0,29.97,WSW,245,0.0,0.0,98,0.00,,,0.00,,2013-05-09 12:22:00,
2013-05-09 08:32:00,59.0,54.0,29.97,West,271,0.0,0.0,85,0.00,,,0.00,,2013-05-09 12:32:00,
2013-05-09 08:43:00,59.0,54.0,29.97,West,271,0.0,0.0,85,0.00,,,0.00,,2013-05-09 12:43:00,
2013-05-09 08:52:00,61.0,55.0,29.98,West,267,0.0,0.0,82,0.00,,,0.00,,2013-05-09 12:52:00,
2013-05-09 09:01:00,62.0,55.0,29.98,West,278,0.0,0.0,77,0.00,,,0.00,,2013-05-09 13:01:00,
2013-05-09 09:12:00,62.0,55.0,29.98,West,278,0.0,0.0,77,0.00,,,0.00,,2013-05-09 13:12:00,
2013-05-09 09:22:00,64.0,54.0,29.98,WNW,288,1.0,4.0,71,0.00,,,0.00,,2013-05-09 13:22:00,
2013-05-09 09:32:00,65.0,54.0,29.98,West,272,1.0,5.0,67,0.00,,,0.00,,2013-05-09 13:32:00,
2013-05-09 09:42:00,65.0,54.0,29.98,West,272,1.0,5.0,67,0.00,,,0.00,,2013-05-09 13:42:00,
2013-05-09 09:52:00,66.0,55.0,29.98,WNW,289,0.0,4.0,67,0.00,,,0.00,,2013-05-09 13:52:00,
2013-05-09 10:02:00,67.0,54.0,29.98,WNW,289,1.0,3.0,63,0.00,,,0.00,,2013-05-09 14:02:00,
2013-05-09 10:11:00,67.0,54.0,29.98,WNW,289,1.0,3.0,63,0.00,,,0.00,,2013-05-09 14:11:00,
2013-05-09 10:22:00,68.0,54.0,29.98,WNW,285,1.0,4.0,60,0.00,,,0.00,,2013-05-09 14:22:00,
2013-05-09 10:32:00,71.0,55.0,29.98,NNW,346,1.0,4.0,57,0.00,,,0.00,,2013-05-09 14:32:00,
2013-05-09 10:42:00,71.0,55.0,29.98,NNW,346,1.0,4.0,57,0.00,,,0.00,,2013-05-09 14:42:00,
2013-05-09 10:52:00,72.0,54.0,29.98,West,279,2.0,3.0,54,0.00,,,0.00,,2013-05-09 14:52:00,
2013-05-09 11:01:00,73.0,52.0,29.98,NW,323,1.0,3.0,48,0.00,,,0.00,,2013-05-09 15:01:00,
2013-05-09 11:11:00,73.0,52.0,29.98,NW,323,1.0,3.0,48,0.00,,,0.00,,2013-05-09 15:11:00,
2013-05-09 11:22:00,74.0,51.0,29.98,NE,39,0.0,4.0,45,0.00,,,0.00,,2013-05-09 15:22:00,
2013-05-09 11:33:00,75.0,52.0,29.98,WNW,290,1.0,3.0,44,0.00,,,0.00,,2013-05-09 15:33:00,
2013-05-09 11:43:00,77.0,52.0,29.98,NW,315,0.0,2.0,42,0.00,,,0.00,,2013-05-09 15:43:00,
2013-05-09 11:53:00,77.0,52.0,29.98,NW,315,0.0,2.0,42,0.00,,,0.00,,2013-05-09 15:53:00,
2013-05-09 12:03:00,77.0,52.0,29.98,WSW,240,2.0,4.0,42,0.00,,,0.00,,2013-05-09 16:03:00,
2013-05-09 12:12:00,77.0,52.0,29.98,WSW,240,2.0,4.0,42,0.00,,,0.00,,2013-05-09 16:12:00,
2013-05-09 12:23:00,77.0,52.0,29.98,WSW,240,2.0,4.0,42,0.00,,,0.00,,2013-05-09 16:23:00,
2013-05-09 12:33:00,77.0,49.0,29.98,East,81,0.0,4.0,38,0.00,,,0.00,,2013-05-09 16:33:00,
2013-05-09 12:42:00,77.0,49.0,29.98,East,81,0.0,4.0,38,0.00,,,0.00,,2013-05-09 16:42:00,
2013-05-09 12:52:00,77.0,49.0,29.98,East,81,0.0,4.0,38,0.00,,,0.00,,2013-05-09 16:52:00,
2013-05-09 13:02:00,78.0,49.0,29.98,WNW,293,2.0,5.0,36,0.00,,,0.00,,2013-05-09 17:02:00,
2013-05-09 13:12:00,78.0,49.0,29.98,WNW,293,2.0,5.0,36,0.00,,,0.00,,2013-05-09 17:12:00,
2013-05-09 13:21:00,77.0,49.0,29.97,NW,322,1.0,3.0,38,0.00,,,0.00,,2013-05-09 17:21:00,
2013-05-09 13:32:00,78.0,49.0,29.97,West,271,1.0,4.0,36,0.00,,,0.00,,2013-05-09 17:32:00,
2013-05-09 13:42:00,78.0,49.0,29.97,West,271,1.0,4.0,36,0.00,,,0.00,,2013-05-09 17:42:00,
2013-05-09 13:55:00,78.0,49.0,29.97,SW,236,2.0,6.0,36,0.00,,,0.00,,2013-05-09 17:55:00,
2013-05-09 14:01:00,78.0,50.0,29.97,WNW,283,1.0,6.0,37,0.00,,,0.00,,2013-05-09 18:01:00,
2013-05-09 14:12:00,78.0,50.0,29.97,WNW,283,1.0,6.0,37,0.00,,,0.00,,2013-05-09 18:12:00,
2013-05-09 14:22:00,78.0,50.0,29.96,West,271,2.0,7.0,37,0.00,,,0.00,,2013-05-09 18:22:00,
2013-05-09 14:32:00,79.0,49.0,29.96,WSW,255,1.0,7.0,35,0.00,,,0.00,,2013-05-09 18:32:00,
2013-05-09 14:42:00,79.0,49.0,29.96,WSW,255,1.0,7.0,35,0.00,,,0.00,,2013-05-09 18:42:00,
2013-05-09 14:52:00,79.0,50.0,29.96,WSW,241,1.0,4.0,37,0.00,,,0.00,,2013-05-09 18:52:00,
2013-05-09 15:01:00,80.0,50.0,29.96,SW,228,1.0,3.0,35,0.00,,,0.00,,2013-05-09 19:01:00,
2013-05-09 15:12:00,80.0,50.0,29.96,SW,228,1.0,3.0,35,0.00,,,0.00,,2013-05-09 19:12:00,
2013-05-09 15:21:00,79.0,48.0,29.95,WSW,256,0.0,3.0,34,0.00,,,0.00,,2013-05-09 19:21:00,
2013-05-09 15:32:00,78.0,50.0,29.95,WSW,251,0.0,3.0,37,0.00,,,0.00,,2013-05-09 19:32:00,
2013-05-09 15:42:00,78.0,50.0,29.95,WSW,251,0.0,3.0,37,0.00,,,0.00,,2013-05-09 19:42:00,
2013-05-09 15:52:00,78.0,49.0,29.94,WNW,286,0.0,3.0,36,0.00,,,0.00,,2013-05-09 19:52:00,
2013-05-09 16:01:00,78.0,49.0,29.94,West,280,0.0,5.0,36,0.00,,,0.00,,2013-05-09 20:01:00,
2013-05-09 16:11:00,78.0,49.0,29.94,West,280,0.0,5.0,36,0.00,,,0.00,,2013-05-09 20:11:00,
2013-05-09 16:22:00,79.0,48.0,29.93,West,276,1.0,4.0,34,0.00,,,0.00,,2013-05-09 20:22:00,
2013-05-09 16:32:00,78.0,47.0,29.93,West,264,1.0,3.0,34,0.00,,,0.00,,2013-05-09 20:32:00,
2013-05-09 16:42:00,78.0,48.0,29.92,West,276,1.0,3.0,35,0.00,,,0.00,,2013-05-09 20:42:00,
2013-05-09 16:52:00,78.0,48.0,29.92,West,276,1.0,3.0,35,0.00,,,0.00,,2013-05-09 20:52:00,
2013-05-09 17:02:00,78.0,50.0,29.92,SW,231,0.0,1.0,37,0.00,,,0.00,,2013-05-09 21:02:00,
2013-05-09 17:12:00,78.0,50.0,29.92,SW,231,0.0,1.0,37,0.00,,,0.00,,2013-05-09 21:12:00,
2013-05-09 17:22:00,77.0,49.0,29.92,WSW,239,0.0,1.0,38,0.00,,,0.00,,2013-05-09 21:22:00,
2013-05-09 17:33:00,77.0,49.0,29.91,SW,236,0.0,1.0,38,0.00,,,0.00,,2013-05-09 21:33:00,
2013-05-09 17:43:00,78.0,52.0,29.91,SW,236,0.0,0.0,41,0.00,,,0.00,,2013-05-09 21:43:00,
2013-05-09 17:52:00,78.0,52.0,29.91,SW,236,0.0,0.0,41,0.00,,,0.00,,2013-05-09 21:52:00,
2013-05-09 18:03:00,78.0,50.0,29.90,NNE,27,0.0,1.0,37,0.00,,,0.00,,2013-05-09 22:03:00,
2013-05-09 18:13:00,77.0,50.0,29.90,NE,51,0.0,0.0,39,0.00,,,0.00,,2013-05-09 22:13:00,
2013-05-09 18:23:00,77.0,50.0,29.90,NE,51,0.0,0.0,39,0.00,,,0.00,,2013-05-09 22:23:00,
2013-05-09 18:33:00,77.0,52.0,29.90,West,281,0.0,0.0,42,0.00,,,0.00,,2013-05-09 22:33:00,
2013-05-09 18:42:00,77.0,49.0,29.90,SSE,160,0.0,0.0,38,0.00,,,0.00,,2013-05-09 22:42:00,
2013-05-09 18:52:00,77.0,49.0,29.90,SSE,160,0.0,0.0,38,0.00,,,0.00,,2013-05-09 22:52:00,
2013-05-09 19:02:00,78.0,51.0,29.89,WSW,239,0.0,2.0,39,0.00,,,0.00,,2013-05-09 23:02:00,
2013-05-09 19:12:00,78.0,51.0,29.89,WSW,239,0.0,2.0,39,0.00,,,0.00,,2013-05-09 23:12:00,
2013-05-09 19:22:00,77.0,49.0,29.90,SW,215,0.0,1.0,37,0.00,,,0.00,,2013-05-09 23:22:00,
2013-05-09 19:32:00,77.0,50.0,29.90,SE,141,0.0,1.0,39,0.00,,,0.00,,2013-05-09 23:32:00,
2013-05-09 19:42:00,77.0,50.0,29.90,SE,141,0.0,1.0,39,0.00,,,0.00,,2013-05-09 23:42:00,
2013-05-09 19:52:00,76.0,51.0,29.90,SE,141,0.0,0.0,42,0.00,,,0.00,,2013-05-09 23:52:00,
2013-05-09 20:01:00,75.0,52.0,29.89,SE,141,0.0,0.0,45,0.00,,,0.00,,2013-05-10 00:01:00,
2013-05-09 20:11:00,73.0,53.0,29.89,SE,141,0.0,0.0,50,0.00,,,0.00,,2013-05-10 00:11:00,
2013-05-09 20:22:00,73.0,53.0,29.89,SE,141,0.0,0.0,50,0.00,,,0.00,,2013-05-10 00:22:00,
2013-05-09 20:32:00,72.0,53.0,29.89,WSW,241,0.0,0.0,51,0.00,,,0.00,,2013-05-10 00:32:00,
2013-05-09 20:42:00,71.0,54.0,29.89,East,87,0.0,0.0,55,0.00,,,0.00,,2013-05-10 00:42:00,
2013-05-09 20:52:00,71.0,54.0,29.89,East,87,0.0,0.0,55,0.00,,,0.00,,2013-05-10 00:52:00,
2013-05-09 21:01:00,71.0,54.0,29.89,East,87,0.0,0.0,54,0.00,,,0.00,,2013-05-10 01:01:00,
2013-05-09 21:11:00,71.0,54.0,29.89,East,87,0.0,0.0,54,0.00,,,0.00,,2013-05-10 01:11:00,
2013-05-09 21:22:00,71.0,54.0,29.89,East,87,0.0,0.0,54,0.00,,,0.00,,2013-05-10 01:22:00,
2013-05-09 21:32:00,71.0,54.0,29.89,East,87,0.0,0.0,54,0.00,,,0.00,,2013-05-10 01:32:00,
2013-05-09 21:42:00,69.0,53.0,29.90,NW,319,0.0,0.0,57,0.00,,,0.00,,2013-05-10 01:42:00,
2013-05-09 21:52:00,69.0,53.0,29.90,NW,319,0.0,0.0,57,0.00,,,0.00,,2013-05-10 01:52:00,
2013-05-09 22:02:00,69.0,53.0,29.90,NW,319,0.0,0.0,57,0.00,,,0.00,,2013-05-10 02:02:00,
2013-05-09 22:11:00,69.0,51.0,29.92,SSE,157,0.0,1.0,53,0.00,,,0.00,,2013-05-10 02:11:00,
2013-05-09 22:21:00,69.0,51.0,29.92,SSE,157,0.0,1.0,53,0.00,,,0.00,,2013-05-10 02:21:00,
2013-05-09 22:32:00,69.0,51.0,29.92,SSE,149,0.0,1.0,53,0.00,,,0.00,,2013-05-10 02:32:00,
2013-05-09 22:42:00,69.0,53.0,29.92,South,181,0.0,1.0,56,0.00,,,0.00,,2013-05-10 02:42:00,
2013-05-09 22:52:00,69.0,53.0,29.92,South,181,0.0,1.0,56,0.00,,,0.00,,2013-05-10 02:52:00,
2013-05-09 23:01:00,68.0,54.0,29.91,SSW,207,0.0,0.0,62,0.00,,,0.00,,2013-05-10 03:01:00,
2013-05-09 23:11:00,68.0,54.0,29.91,SSW,207,0.0,0.0,62,0.00,,,0.00,,2013-05-10 03:11:00,
2013-05-09 23:22:00,68.0,54.0,29.91,SSW,207,0.0,0.0,62,0.00,,,0.00,,2013-05-10 03:22:00,
2013-05-09 23:33:00,66.0,55.0,29.91,SSW,204,0.0,0.0,67,0.00,,,0.00,,2013-05-10 03:33:00,
2013-05-09 23:43:00,66.0,55.0,29.91,SSW,204,0.0,0.0,67,0.00,,,0.00,,2013-05-10 03:43:00,
2013-05-09 23:53:00,65.0,54.0,29.91,SSW,204,0.0,0.0,67,0.00,,,0.00,,2013-05-10 03:53:00,